sensor_id;sensor_type;location;lat;lon;timestamp;pressure;altitude;pressure_sealevel;temperature;humidity
64610;BME280;51019;46.090;6.350;2023-08-06T00:01:03;96346.31;;;19.13;69.73
64610;BME280;51019;46.090;6.350;2023-08-06T00:03:31;96326.31;;;19.17;71.66
64610;BME280;51019;46.090;6.350;2023-08-06T00:05:59;96343.50;;;19.28;72.80
64610;BME280;51019;46.090;6.350;2023-08-06T00:08:28;96335.72;;;19.26;72.06
64610;BME280;51019;46.090;6.350;2023-08-06T00:10:57;96334.28;;;19.17;72.64
64610;BME280;51019;46.090;6.350;2023-08-06T00:13:25;96339.16;;;19.20;72.34
64610;BME280;51019;46.090;6.350;2023-08-06T00:15:52;96336.34;;;19.28;72.34
64610;BME280;51019;46.090;6.350;2023-08-06T00:18:19;96339.78;;;19.22;73.73
64610;BME280;51019;46.090;6.350;2023-08-06T00:20:47;96337.41;;;18.79;74.49
64610;BME280;51019;46.090;6.350;2023-08-06T00:23:15;96328.38;;;19.28;73.71
64610;BME280;51019;46.090;6.350;2023-08-06T00:25:43;96327.75;;;19.26;74.50
64610;BME280;51019;46.090;6.350;2023-08-06T00:28:12;96314.06;;;19.29;74.89
64610;BME280;51019;46.090;6.350;2023-08-06T00:30:40;96307.44;;;18.99;78.71
64610;BME280;51019;46.090;6.350;2023-08-06T00:33:08;96303.56;;;18.95;76.09
64610;BME280;51019;46.090;6.350;2023-08-06T00:35:36;96282.75;;;18.50;82.14
64610;BME280;51019;46.090;6.350;2023-08-06T00:38:05;96282.84;;;18.29;83.82
64610;BME280;51019;46.090;6.350;2023-08-06T00:40:33;96264.50;;;18.34;80.84
64610;BME280;51019;46.090;6.350;2023-08-06T00:43:01;96271.34;;;18.57;80.45
64610;BME280;51019;46.090;6.350;2023-08-06T00:45:30;96275.00;;;18.49;81.84
64610;BME280;51019;46.090;6.350;2023-08-06T00:48:00;96275.34;;;18.39;80.82
64610;BME280;51019;46.090;6.350;2023-08-06T00:50:28;96280.84;;;18.79;78.71
64610;BME280;51019;46.090;6.350;2023-08-06T00:52:56;96265.28;;;18.69;78.49
64610;BME280;51019;46.090;6.350;2023-08-06T00:55:24;96286.53;;;18.76;80.61
64610;BME280;51019;46.090;6.350;2023-08-06T00:57:52;96290.19;;;18.62;83.10
64610;BME280;51019;46.090;6.350;2023-08-06T01:00:22;96282.50;;;18.39;84.67
64610;BME280;51019;46.090;6.350;2023-08-06T01:02:51;96307.69;;;18.22;87.05
64610;BME280;51019;46.090;6.350;2023-08-06T01:05:22;96315.56;;;18.43;86.17
64610;BME280;51019;46.090;6.350;2023-08-06T01:08:00;96296.09;;;18.29;83.44
64610;BME280;51019;46.090;6.350;2023-08-06T01:10:41;96310.59;;;18.61;79.28
64610;BME280;51019;46.090;6.350;2023-08-06T01:13:18;96302.06;;;18.79;80.99
64610;BME280;51019;46.090;6.350;2023-08-06T01:15:53;96287.94;;;18.65;82.19
64610;BME280;51019;46.090;6.350;2023-08-06T01:18:24;96297.53;;;18.60;86.95
64610;BME280;51019;46.090;6.350;2023-08-06T01:20:53;96295.81;;;18.52;87.83
64610;BME280;51019;46.090;6.350;2023-08-06T01:23:21;96297.53;;;18.60;87.50
64610;BME280;51019;46.090;6.350;2023-08-06T01:25:57;96290.72;;;18.50;94.71
64610;BME280;51019;46.090;6.350;2023-08-06T01:28:33;96295.13;;;18.71;94.42
64610;BME280;51019;46.090;6.350;2023-08-06T01:31:07;96285.13;;;18.73;98.06
64610;BME280;51019;46.090;6.350;2023-08-06T01:33:40;96283.34;;;18.46;92.52
64610;BME280;51019;46.090;6.350;2023-08-06T01:36:12;96288.53;;;18.61;97.67
64610;BME280;51019;46.090;6.350;2023-08-06T01:38:40;96283.63;;;18.64;91.91
64610;BME280;51019;46.090;6.350;2023-08-06T01:41:07;96275.91;;;18.69;97.03
64610;BME280;51019;46.090;6.350;2023-08-06T01:43:35;96281.84;;;18.78;91.63
64610;BME280;51019;46.090;6.350;2023-08-06T01:46:05;96277.66;;;18.56;94.50
64610;BME280;51019;46.090;6.350;2023-08-06T01:48:32;96278.41;;;18.43;94.27
64610;BME280;51019;46.090;6.350;2023-08-06T01:51:00;96290.50;;;18.52;97.64
64610;BME280;51019;46.090;6.350;2023-08-06T01:53:30;96299.63;;;18.36;98.75
64610;BME280;51019;46.090;6.350;2023-08-06T01:55:57;96288.75;;;18.25;99.34
64610;BME280;51019;46.090;6.350;2023-08-06T01:58:26;96292.72;;;18.07;98.49
64610;BME280;51019;46.090;6.350;2023-08-06T02:00:54;96296.19;;;18.08;100.00
64610;BME280;51019;46.090;6.350;2023-08-06T02:03:21;96289.00;;;17.74;94.31
64610;BME280;51019;46.090;6.350;2023-08-06T02:05:49;96297.72;;;17.96;96.55
64610;BME280;51019;46.090;6.350;2023-08-06T02:08:17;96298.81;;;18.01;99.18
64610;BME280;51019;46.090;6.350;2023-08-06T02:10:46;96303.63;;;17.63;100.00
64610;BME280;51019;46.090;6.350;2023-08-06T02:13:14;96283.31;;;17.49;100.00
64610;BME280;51019;46.090;6.350;2023-08-06T02:15:44;96305.25;;;17.43;100.00
64610;BME280;51019;46.090;6.350;2023-08-06T02:18:13;96311.72;;;17.62;100.00
64610;BME280;51019;46.090;6.350;2023-08-06T02:20:40;96288.28;;;17.59;100.00
64610;BME280;51019;46.090;6.350;2023-08-06T02:23:08;96306.38;;;17.76;100.00
64610;BME280;51019;46.090;6.350;2023-08-06T02:25:37;96309.28;;;17.60;100.00
64610;BME280;51019;46.090;6.350;2023-08-06T02:28:06;96310.81;;;17.48;100.00
64610;BME280;51019;46.090;6.350;2023-08-06T02:30:38;96305.28;;;17.50;100.00
64610;BME280;51019;46.090;6.350;2023-08-06T02:33:06;96310.38;;;17.66;100.00
64610;BME280;51019;46.090;6.350;2023-08-06T02:35:34;96308.69;;;17.86;100.00
64610;BME280;51019;46.090;6.350;2023-08-06T02:38:03;96298.44;;;17.55;93.73
64610;BME280;51019;46.090;6.350;2023-08-06T02:40:30;96299.50;;;17.82;92.39
64610;BME280;51019;46.090;6.350;2023-08-06T02:42:57;96290.66;;;18.03;94.13
64610;BME280;51019;46.090;6.350;2023-08-06T02:45:25;96289.03;;;18.02;96.28
64610;BME280;51019;46.090;6.350;2023-08-06T02:47:52;96253.53;;;17.68;96.21
64610;BME280;51019;46.090;6.350;2023-08-06T02:50:20;96284.25;;;17.91;92.53
64610;BME280;51019;46.090;6.350;2023-08-06T02:52:49;96253.53;;;17.68;91.40
64610;BME280;51019;46.090;6.350;2023-08-06T02:55:16;96265.56;;;17.71;89.27
64610;BME280;51019;46.090;6.350;2023-08-06T02:57:43;96261.88;;;17.72;90.21
64610;BME280;51019;46.090;6.350;2023-08-06T03:00:11;96269.31;;;17.62;94.45
64610;BME280;51019;46.090;6.350;2023-08-06T03:02:39;96248.47;;;17.03;97.25
64610;BME280;51019;46.090;6.350;2023-08-06T03:05:07;96277.19;;;17.27;91.05
64610;BME280;51019;46.090;6.350;2023-08-06T03:07:34;96280.47;;;17.29;87.86
64610;BME280;51019;46.090;6.350;2023-08-06T03:10:02;96266.81;;;17.75;88.97
64610;BME280;51019;46.090;6.350;2023-08-06T03:12:29;96268.28;;;17.84;84.84
64610;BME280;51019;46.090;6.350;2023-08-06T03:14:56;96266.91;;;17.88;85.70
64610;BME280;51019;46.090;6.350;2023-08-06T03:17:23;96273.50;;;17.99;86.21
64610;BME280;51019;46.090;6.350;2023-08-06T03:19:52;96278.56;;;17.66;83.72
64610;BME280;51019;46.090;6.350;2023-08-06T03:22:19;96291.84;;;18.00;82.73
64610;BME280;51019;46.090;6.350;2023-08-06T03:24:50;96293.97;;;17.84;83.47
64610;BME280;51019;46.090;6.350;2023-08-06T03:27:17;96298.16;;;17.93;82.64
64610;BME280;51019;46.090;6.350;2023-08-06T03:29:44;96287.66;;;17.85;84.39
64610;BME280;51019;46.090;6.350;2023-08-06T03:32:11;96300.59;;;17.94;85.10
64610;BME280;51019;46.090;6.350;2023-08-06T03:34:38;96299.56;;;17.95;86.45
64610;BME280;51019;46.090;6.350;2023-08-06T03:37:07;96294.97;;;18.10;82.80
64610;BME280;51019;46.090;6.350;2023-08-06T03:39:34;96294.81;;;18.19;81.15
64610;BME280;51019;46.090;6.350;2023-08-06T03:42:01;96299.66;;;18.08;82.14
64610;BME280;51019;46.090;6.350;2023-08-06T03:44:28;96310.03;;;18.03;80.93
64610;BME280;51019;46.090;6.350;2023-08-06T03:46:56;96297.53;;;17.97;80.91
64610;BME280;51019;46.090;6.350;2023-08-06T03:49:23;96308.47;;;17.81;84.19
64610;BME280;51019;46.090;6.350;2023-08-06T03:51:50;96319.09;;;17.88;88.48
64610;BME280;51019;46.090;6.350;2023-08-06T03:54:19;96324.59;;;17.86;92.17
64610;BME280;51019;46.090;6.350;2023-08-06T03:56:46;96339.19;;;17.54;93.06
64610;BME280;51019;46.090;6.350;2023-08-06T03:59:13;96357.69;;;17.26;100.00
64610;BME280;51019;46.090;6.350;2023-08-06T04:01:40;96352.91;;;17.00;100.00
64610;BME280;51019;46.090;6.350;2023-08-06T04:04:07;96353.25;;;17.12;100.00
64610;BME280;51019;46.090;6.350;2023-08-06T04:06:34;96362.56;;;17.29;100.00
64610;BME280;51019;46.090;6.350;2023-08-06T04:09:01;96372.53;;;17.27;100.00
64610;BME280;51019;46.090;6.350;2023-08-06T04:11:30;96367.66;;;17.10;100.00
64610;BME280;51019;46.090;6.350;2023-08-06T04:13:57;96352.28;;;17.20;100.00
64610;BME280;51019;46.090;6.350;2023-08-06T04:16:24;96359.06;;;17.22;100.00
64610;BME280;51019;46.090;6.350;2023-08-06T04:18:51;96337.53;;;17.11;100.00
64610;BME280;51019;46.090;6.350;2023-08-06T04:21:21;96356.81;;;17.04;100.00
64610;BME280;51019;46.090;6.350;2023-08-06T04:23:47;96371.19;;;17.17;100.00
64610;BME280;51019;46.090;6.350;2023-08-06T04:26:15;96366.53;;;16.83;100.00
64610;BME280;51019;46.090;6.350;2023-08-06T04:28:43;96374.56;;;16.89;100.00
64610;BME280;51019;46.090;6.350;2023-08-06T04:31:10;96378.34;;;16.80;100.00
64610;BME280;51019;46.090;6.350;2023-08-06T04:33:37;96384.28;;;16.67;100.00
64610;BME280;51019;46.090;6.350;2023-08-06T04:36:04;96372.13;;;16.44;100.00
64610;BME280;51019;46.090;6.350;2023-08-06T04:38:31;96361.88;;;16.11;100.00
64610;BME280;51019;46.090;6.350;2023-08-06T04:40:58;96346.56;;;16.07;100.00
64610;BME280;51019;46.090;6.350;2023-08-06T04:43:25;96358.88;;;16.44;100.00
64610;BME280;51019;46.090;6.350;2023-08-06T04:45:54;96355.59;;;16.27;100.00
64610;BME280;51019;46.090;6.350;2023-08-06T04:48:22;96366.34;;;16.40;100.00
64610;BME280;51019;46.090;6.350;2023-08-06T04:50:50;96378.13;;;16.52;100.00
64610;BME280;51019;46.090;6.350;2023-08-06T04:53:17;96378.03;;;16.60;100.00
64610;BME280;51019;46.090;6.350;2023-08-06T04:55:44;96378.13;;;16.52;100.00
64610;BME280;51019;46.090;6.350;2023-08-06T04:58:12;96353.78;;;16.13;100.00
64610;BME280;51019;46.090;6.350;2023-08-06T05:00:39;96366.97;;;15.98;100.00
64610;BME280;51019;46.090;6.350;2023-08-06T05:03:11;96383.03;;;16.11;100.00
64610;BME280;51019;46.090;6.350;2023-08-06T05:05:40;96351.66;;;16.38;100.00
64610;BME280;51019;46.090;6.350;2023-08-06T05:08:13;96388.28;;;16.78;99.28
64610;BME280;51019;46.090;6.350;2023-08-06T05:10:42;96392.34;;;16.95;98.76
64610;BME280;51019;46.090;6.350;2023-08-06T05:13:10;96390.63;;;16.88;100.00
64610;BME280;51019;46.090;6.350;2023-08-06T05:15:39;96366.19;;;16.71;98.13
64610;BME280;51019;46.090;6.350;2023-08-06T05:18:08;96364.91;;;16.52;100.00
64610;BME280;51019;46.090;6.350;2023-08-06T05:20:38;96387.09;;;16.81;97.83
64610;BME280;51019;46.090;6.350;2023-08-06T05:23:07;96404.41;;;16.83;100.00
64610;BME280;51019;46.090;6.350;2023-08-06T05:25:35;96402.41;;;16.85;100.00
64610;BME280;51019;46.090;6.350;2023-08-06T05:28:02;96401.28;;;16.94;100.00
64610;BME280;51019;46.090;6.350;2023-08-06T05:30:30;96401.22;;;16.88;100.00
64610;BME280;51019;46.090;6.350;2023-08-06T05:32:57;96405.09;;;17.06;100.00
64610;BME280;51019;46.090;6.350;2023-08-06T05:35:24;96405.03;;;17.00;100.00
64610;BME280;51019;46.090;6.350;2023-08-06T05:37:57;96380.03;;;16.88;100.00
64610;BME280;51019;46.090;6.350;2023-08-06T05:40:28;96410.16;;;17.01;100.00
64610;BME280;51019;46.090;6.350;2023-08-06T05:42:55;96414.34;;;16.96;100.00
64610;BME280;51019;46.090;6.350;2023-08-06T05:45:22;96434.25;;;16.92;100.00
64610;BME280;51019;46.090;6.350;2023-08-06T05:47:50;96437.63;;;16.56;100.00
64610;BME280;51019;46.090;6.350;2023-08-06T05:50:19;96445.00;;;16.46;100.00
64610;BME280;51019;46.090;6.350;2023-08-06T05:52:51;96459.91;;;16.62;100.00
64610;BME280;51019;46.090;6.350;2023-08-06T05:55:20;96440.53;;;16.47;100.00
64610;BME280;51019;46.090;6.350;2023-08-06T05:57:47;96463.69;;;16.45;100.00
64610;BME280;51019;46.090;6.350;2023-08-06T06:00:16;96454.84;;;16.52;100.00
64610;BME280;51019;46.090;6.350;2023-08-06T06:02:44;96474.41;;;16.66;100.00
64610;BME280;51019;46.090;6.350;2023-08-06T06:05:11;96477.41;;;16.63;100.00
64610;BME280;51019;46.090;6.350;2023-08-06T06:07:38;96490.66;;;16.78;100.00
64610;BME280;51019;46.090;6.350;2023-08-06T06:10:07;96501.47;;;16.53;100.00
64610;BME280;51019;46.090;6.350;2023-08-06T06:12:38;96506.31;;;15.89;100.00
64610;BME280;51019;46.090;6.350;2023-08-06T06:15:06;96516.41;;;16.46;94.78
64610;BME280;51019;46.090;6.350;2023-08-06T06:17:34;96519.34;;;16.51;91.13
64610;BME280;51019;46.090;6.350;2023-08-06T06:20:01;96515.66;;;16.75;87.63
64610;BME280;51019;46.090;6.350;2023-08-06T06:22:29;96508.41;;;16.54;91.35
64610;BME280;51019;46.090;6.350;2023-08-06T06:24:58;96525.34;;;16.45;90.51
64610;BME280;51019;46.090;6.350;2023-08-06T06:27:25;96538.56;;;16.68;92.13
64610;BME280;51019;46.090;6.350;2023-08-06T06:29:55;96490.53;;;16.19;94.16
64610;BME280;51019;46.090;6.350;2023-08-06T06:32:23;96525.38;;;16.60;86.67
64610;BME280;51019;46.090;6.350;2023-08-06T06:34:50;96537.75;;;16.59;83.65
64610;BME280;51019;46.090;6.350;2023-08-06T06:37:17;96544.09;;;16.58;86.10
64610;BME280;51019;46.090;6.350;2023-08-06T06:39:44;96544.56;;;16.62;88.51
64610;BME280;51019;46.090;6.350;2023-08-06T06:42:12;96546.88;;;16.80;87.35
64610;BME280;51019;46.090;6.350;2023-08-06T06:44:40;96549.16;;;16.68;88.56
64610;BME280;51019;46.090;6.350;2023-08-06T06:47:10;96532.72;;;16.73;85.96
64610;BME280;51019;46.090;6.350;2023-08-06T06:49:37;96533.72;;;16.72;85.02
64610;BME280;51019;46.090;6.350;2023-08-06T06:52:05;96542.75;;;16.62;83.36
64610;BME280;51019;46.090;6.350;2023-08-06T06:54:32;96546.78;;;16.73;85.74
64610;BME280;51019;46.090;6.350;2023-08-06T06:57:00;96553.84;;;17.10;89.94
64610;BME280;51019;46.090;6.350;2023-08-06T06:59:27;96541.97;;;16.54;86.31
64610;BME280;51019;46.090;6.350;2023-08-06T07:01:55;96554.16;;;16.40;92.31
64610;BME280;51019;46.090;6.350;2023-08-06T07:04:24;96557.22;;;16.29;86.35
64610;BME280;51019;46.090;6.350;2023-08-06T07:06:51;96551.81;;;16.45;84.91
64610;BME280;51019;46.090;6.350;2023-08-06T07:09:18;96557.63;;;16.41;84.47
64610;BME280;51019;46.090;6.350;2023-08-06T07:11:47;96545.63;;;16.53;86.51
64610;BME280;51019;46.090;6.350;2023-08-06T07:14:14;96541.84;;;16.10;86.36
64610;BME280;51019;46.090;6.350;2023-08-06T07:16:41;96543.25;;;15.97;87.61
64610;BME280;51019;46.090;6.350;2023-08-06T07:19:08;96551.41;;;16.33;84.28
64610;BME280;51019;46.090;6.350;2023-08-06T07:21:37;96558.94;;;15.99;87.98
64610;BME280;51019;46.090;6.350;2023-08-06T07:24:04;96572.94;;;15.77;90.27
64610;BME280;51019;46.090;6.350;2023-08-06T07:26:31;96572.56;;;16.11;86.34
64610;BME280;51019;46.090;6.350;2023-08-06T07:28:58;96567.31;;;15.80;87.63
64610;BME280;51019;46.090;6.350;2023-08-06T07:31:25;96596.75;;;16.00;87.47
64610;BME280;51019;46.090;6.350;2023-08-06T07:33:52;96591.88;;;15.80;89.35
64610;BME280;51019;46.090;6.350;2023-08-06T07:36:19;96600.53;;;15.74;91.61
64610;BME280;51019;46.090;6.350;2023-08-06T07:38:48;96609.31;;;15.97;87.77
64610;BME280;51019;46.090;6.350;2023-08-06T07:41:21;96604.66;;;15.77;85.52
64610;BME280;51019;46.090;6.350;2023-08-06T07:43:47;96615.03;;;15.78;85.06
64610;BME280;51019;46.090;6.350;2023-08-06T07:46:15;96604.09;;;15.81;85.22
64610;BME280;51019;46.090;6.350;2023-08-06T07:48:42;96605.78;;;16.05;86.21
64610;BME280;51019;46.090;6.350;2023-08-06T07:51:09;96610.22;;;15.82;87.00
64610;BME280;51019;46.090;6.350;2023-08-06T07:53:36;96609.38;;;15.89;85.18
64610;BME280;51019;46.090;6.350;2023-08-06T07:56:05;96622.47;;;16.06;85.58
64610;BME280;51019;46.090;6.350;2023-08-06T07:58:32;96631.00;;;16.16;85.10
64610;BME280;51019;46.090;6.350;2023-08-06T08:00:59;96622.41;;;16.22;83.03
64610;BME280;51019;46.090;6.350;2023-08-06T08:03:26;96611.84;;;16.59;83.28
64610;BME280;51019;46.090;6.350;2023-08-06T08:05:55;96618.63;;;15.85;84.08
64610;BME280;51019;46.090;6.350;2023-08-06T08:08:24;96621.03;;;16.72;82.61
64610;BME280;51019;46.090;6.350;2023-08-06T08:10:51;96618.06;;;16.75;81.32
64610;BME280;51019;46.090;6.350;2023-08-06T08:13:22;96632.84;;;16.84;82.94
64610;BME280;51019;46.090;6.350;2023-08-06T08:15:49;96631.25;;;16.29;82.83
64610;BME280;51019;46.090;6.350;2023-08-06T08:18:16;96631.19;;;16.60;80.74
64610;BME280;51019;46.090;6.350;2023-08-06T08:20:44;96618.28;;;16.19;83.94
64610;BME280;51019;46.090;6.350;2023-08-06T08:23:11;96626.28;;;16.34;80.77
64610;BME280;51019;46.090;6.350;2023-08-06T08:25:38;96631.38;;;17.04;79.31
64610;BME280;51019;46.090;6.350;2023-08-06T08:28:05;96616.41;;;17.26;75.67
64610;BME280;51019;46.090;6.350;2023-08-06T08:30:35;96614.56;;;16.74;78.24
64610;BME280;51019;46.090;6.350;2023-08-06T08:33:02;96632.25;;;16.96;77.63
64610;BME280;51019;46.090;6.350;2023-08-06T08:35:32;96622.34;;;17.57;77.51
64610;BME280;51019;46.090;6.350;2023-08-06T08:38:07;96641.66;;;17.81;75.62
64610;BME280;51019;46.090;6.350;2023-08-06T08:40:39;96640.81;;;17.80;75.05
64610;BME280;51019;46.090;6.350;2023-08-06T08:43:08;96630.28;;;17.13;76.68
64610;BME280;51019;46.090;6.350;2023-08-06T08:45:39;96627.75;;;17.78;72.90
64610;BME280;51019;46.090;6.350;2023-08-06T08:48:12;96625.69;;;17.95;71.07
64610;BME280;51019;46.090;6.350;2023-08-06T08:50:42;96615.84;;;17.74;72.05
64610;BME280;51019;46.090;6.350;2023-08-06T08:53:11;96626.25;;;18.05;69.06
64610;BME280;51019;46.090;6.350;2023-08-06T08:55:42;96628.47;;;17.87;71.22
64610;BME280;51019;46.090;6.350;2023-08-06T08:58:11;96614.69;;;17.48;72.41
64610;BME280;51019;46.090;6.350;2023-08-06T09:00:42;96641.88;;;18.00;69.25
64610;BME280;51019;46.090;6.350;2023-08-06T09:03:11;96636.03;;;17.90;70.98
64610;BME280;51019;46.090;6.350;2023-08-06T09:05:46;96644.00;;;17.75;68.23
64610;BME280;51019;46.090;6.350;2023-08-06T09:08:18;96644.13;;;17.67;73.49
64610;BME280;51019;46.090;6.350;2023-08-06T09:10:57;96608.00;;;17.52;74.25
64610;BME280;51019;46.090;6.350;2023-08-06T09:13:25;96635.09;;;18.12;73.45
64610;BME280;51019;46.090;6.350;2023-08-06T09:15:54;96632.28;;;17.85;74.26
64610;BME280;51019;46.090;6.350;2023-08-06T09:18:25;96631.56;;;17.61;77.07
64610;BME280;51019;46.090;6.350;2023-08-06T09:20:53;96633.41;;;17.90;77.59
64610;BME280;51019;46.090;6.350;2023-08-06T09:23:31;96649.63;;;18.17;74.63
64610;BME280;51019;46.090;6.350;2023-08-06T09:26:00;96646.00;;;17.73;74.48
64610;BME280;51019;46.090;6.350;2023-08-06T09:28:36;96654.50;;;17.39;80.70
64610;BME280;51019;46.090;6.350;2023-08-06T09:31:07;96656.66;;;16.84;80.45
64610;BME280;51019;46.090;6.350;2023-08-06T09:33:36;96660.97;;;17.52;77.87
64610;BME280;51019;46.090;6.350;2023-08-06T09:36:08;96668.88;;;17.89;72.80
64610;BME280;51019;46.090;6.350;2023-08-06T09:38:40;96662.53;;;17.61;77.91
64610;BME280;51019;46.090;6.350;2023-08-06T09:41:08;96661.06;;;18.74;72.44
64610;BME280;51019;46.090;6.350;2023-08-06T09:43:42;96664.06;;;18.50;70.80
64610;BME280;51019;46.090;6.350;2023-08-06T09:46:16;96669.13;;;17.35;75.82
64610;BME280;51019;46.090;6.350;2023-08-06T09:48:47;96664.09;;;17.85;75.44
64610;BME280;51019;46.090;6.350;2023-08-06T09:51:15;96651.81;;;18.49;75.22
64610;BME280;51019;46.090;6.350;2023-08-06T09:53:45;96660.09;;;19.03;70.56
64610;BME280;51019;46.090;6.350;2023-08-06T09:56:17;96648.56;;;18.96;70.39
64610;BME280;51019;46.090;6.350;2023-08-06T09:58:48;96641.69;;;19.02;69.81
64610;BME280;51019;46.090;6.350;2023-08-06T10:01:19;96657.38;;;17.82;75.05
64610;BME280;51019;46.090;6.350;2023-08-06T10:03:51;96654.63;;;18.26;75.21
64610;BME280;51019;46.090;6.350;2023-08-06T10:06:22;96647.63;;;18.04;75.54
64610;BME280;51019;46.090;6.350;2023-08-06T10:08:54;96655.19;;;17.71;75.18
64610;BME280;51019;46.090;6.350;2023-08-06T10:11:24;96641.16;;;17.62;75.20
64610;BME280;51019;46.090;6.350;2023-08-06T10:13:54;96639.84;;;18.17;70.28
64610;BME280;51019;46.090;6.350;2023-08-06T10:16:24;96651.69;;;19.00;67.85
64610;BME280;51019;46.090;6.350;2023-08-06T10:18:52;96654.19;;;19.36;65.51
64610;BME280;51019;46.090;6.350;2023-08-06T10:21:23;96655.06;;;19.15;65.51
64610;BME280;51019;46.090;6.350;2023-08-06T10:23:54;96658.56;;;19.78;62.37
64610;BME280;51019;46.090;6.350;2023-08-06T10:26:25;96666.13;;;21.09;59.30
64610;BME280;51019;46.090;6.350;2023-08-06T10:28:53;96664.03;;;20.78;59.09
64610;BME280;51019;46.090;6.350;2023-08-06T10:31:58;96673.84;;;20.04;58.68
64610;BME280;51019;46.090;6.350;2023-08-06T10:34:53;96672.56;;;19.52;61.94
64610;BME280;51019;46.090;6.350;2023-08-06T10:37:21;96673.06;;;19.19;63.02
64610;BME280;51019;46.090;6.350;2023-08-06T10:39:49;96657.72;;;18.51;64.88
64610;BME280;51019;46.090;6.350;2023-08-06T10:42:21;96651.88;;;18.20;64.70
64610;BME280;51019;46.090;6.350;2023-08-06T10:45:16;96671.63;;;18.53;62.13
64610;BME280;51019;46.090;6.350;2023-08-06T10:47:46;96657.31;;;18.47;65.41
64610;BME280;51019;46.090;6.350;2023-08-06T10:50:15;96674.34;;;19.23;62.15
64610;BME280;51019;46.090;6.350;2023-08-06T10:52:43;96678.69;;;19.31;62.97
64610;BME280;51019;46.090;6.350;2023-08-06T10:55:12;96675.88;;;19.11;63.22
64610;BME280;51019;46.090;6.350;2023-08-06T10:57:41;96683.44;;;19.36;62.54
64610;BME280;51019;46.090;6.350;2023-08-06T11:00:10;96682.06;;;19.46;60.92
64610;BME280;51019;46.090;6.350;2023-08-06T11:02:40;96663.94;;;18.37;64.75
64610;BME280;51019;46.090;6.350;2023-08-06T11:05:13;96679.78;;;19.43;63.77
64610;BME280;51019;46.090;6.350;2023-08-06T11:07:41;96688.28;;;19.53;61.01
64610;BME280;51019;46.090;6.350;2023-08-06T11:10:12;96687.06;;;19.56;62.61
64610;BME280;51019;46.090;6.350;2023-08-06T11:12:41;96677.06;;;19.92;61.85
64610;BME280;51019;46.090;6.350;2023-08-06T11:15:09;96670.69;;;19.87;62.00
64610;BME280;51019;46.090;6.350;2023-08-06T11:17:40;96678.00;;;19.22;63.74
64610;BME280;51019;46.090;6.350;2023-08-06T11:20:09;96663.88;;;19.78;62.02
64610;BME280;51019;46.090;6.350;2023-08-06T11:22:39;96687.88;;;19.84;63.53
64610;BME280;51019;46.090;6.350;2023-08-06T11:25:07;96682.31;;;19.23;67.48
64610;BME280;51019;46.090;6.350;2023-08-06T11:27:40;96688.91;;;18.85;73.07
64610;BME280;51019;46.090;6.350;2023-08-06T11:30:10;96684.38;;;18.58;81.85
64610;BME280;51019;46.090;6.350;2023-08-06T11:32:45;96686.09;;;17.41;90.87
64610;BME280;51019;46.090;6.350;2023-08-06T11:35:13;96701.31;;;17.76;94.27
64610;BME280;51019;46.090;6.350;2023-08-06T11:37:46;96684.41;;;17.11;98.61
64610;BME280;51019;46.090;6.350;2023-08-06T11:40:14;96689.75;;;16.65;100.00
64610;BME280;51019;46.090;6.350;2023-08-06T11:42:42;96691.44;;;17.85;95.65
64610;BME280;51019;46.090;6.350;2023-08-06T11:45:11;96693.91;;;17.87;91.94
64610;BME280;51019;46.090;6.350;2023-08-06T11:47:41;96681.97;;;17.38;93.48
64610;BME280;51019;46.090;6.350;2023-08-06T11:50:21;96686.22;;;17.48;94.00
64610;BME280;51019;46.090;6.350;2023-08-06T11:52:53;96674.03;;;17.38;88.92
64610;BME280;51019;46.090;6.350;2023-08-06T11:55:23;96703.44;;;17.81;83.03
64610;BME280;51019;46.090;6.350;2023-08-06T11:57:52;96707.53;;;17.98;81.61
64610;BME280;51019;46.090;6.350;2023-08-06T12:00:19;96706.44;;;17.78;82.59
64610;BME280;51019;46.090;6.350;2023-08-06T12:02:56;96701.03;;;17.86;81.84
64610;BME280;51019;46.090;6.350;2023-08-06T12:05:31;96699.03;;;17.88;79.78
64610;BME280;51019;46.090;6.350;2023-08-06T12:08:02;96697.97;;;18.19;77.64
64610;BME280;51019;46.090;6.350;2023-08-06T12:10:31;96701.50;;;18.04;82.29
64610;BME280;51019;46.090;6.350;2023-08-06T12:13:00;96706.91;;;18.47;79.00
64610;BME280;51019;46.090;6.350;2023-08-06T12:15:28;96700.38;;;18.13;78.93
64610;BME280;51019;46.090;6.350;2023-08-06T12:17:55;96693.03;;;18.66;73.79
64610;BME280;51019;46.090;6.350;2023-08-06T12:20:26;96685.25;;;18.86;75.32
64610;BME280;51019;46.090;6.350;2023-08-06T12:22:53;96695.44;;;19.04;75.02
64610;BME280;51019;46.090;6.350;2023-08-06T12:25:24;96687.59;;;18.74;77.83
64610;BME280;51019;46.090;6.350;2023-08-06T12:27:52;96704.81;;;18.78;78.78
64610;BME280;51019;46.090;6.350;2023-08-06T12:30:19;96706.72;;;18.48;76.12
64610;BME280;51019;46.090;6.350;2023-08-06T12:32:46;96708.59;;;18.69;78.73
64610;BME280;51019;46.090;6.350;2023-08-06T12:35:14;96719.97;;;18.48;78.69
64610;BME280;51019;46.090;6.350;2023-08-06T12:37:41;96719.84;;;18.21;78.26
64610;BME280;51019;46.090;6.350;2023-08-06T12:40:10;96716.75;;;18.53;78.41
64610;BME280;51019;46.090;6.350;2023-08-06T12:42:44;96711.63;;;18.88;71.42
64610;BME280;51019;46.090;6.350;2023-08-06T12:45:11;96706.47;;;18.29;75.94
64610;BME280;51019;46.090;6.350;2023-08-06T12:47:39;96726.03;;;18.78;76.03
64610;BME280;51019;46.090;6.350;2023-08-06T12:50:08;96715.22;;;19.22;69.39
64610;BME280;51019;46.090;6.350;2023-08-06T12:52:36;96709.47;;;20.50;66.06
64610;BME280;51019;46.090;6.350;2023-08-06T12:55:07;96674.03;;;20.02;65.56
64610;BME280;51019;46.090;6.350;2023-08-06T12:57:39;96706.06;;;20.89;64.17
64610;BME280;51019;46.090;6.350;2023-08-06T13:00:09;96698.88;;;21.89;59.47
64610;BME280;51019;46.090;6.350;2023-08-06T13:02:37;96700.28;;;22.11;59.36
64610;BME280;51019;46.090;6.350;2023-08-06T13:05:05;96710.69;;;20.54;62.45
64610;BME280;51019;46.090;6.350;2023-08-06T13:07:34;96698.22;;;20.61;59.43